createdAt,value
2019-02-10T00:00:36.817Z,7.23
2019-02-10T00:04:46.723Z,7.24
2019-02-10T00:08:53.959Z,7.17
2019-02-10T00:13:40.932Z,7.17
2019-02-10T00:17:48.046Z,7.17
2019-02-10T00:21:55.103Z,7.22
2019-02-10T00:26:01.991Z,7.22
2019-02-10T00:30:08.991Z,7.21
2019-02-10T00:34:16.236Z,7.12
2019-02-10T00:38:23.182Z,7.16
2019-02-10T00:42:30.318Z,7.11
2019-02-10T00:46:37.135Z,6.90
2019-02-10T00:50:46.088Z,6.89
2019-02-10T00:54:53.044Z,6.87
2019-02-10T00:58:59.881Z,6.85
2019-02-10T01:03:07.963Z,6.82
2019-02-10T01:07:15.031Z,6.85
2019-02-10T01:11:22.047Z,6.84
2019-02-10T01:15:28.934Z,6.74
2019-02-10T01:19:35.932Z,6.68
2019-02-10T01:23:42.765Z,6.63
2019-02-10T01:27:49.626Z,6.81
2019-02-10T01:31:56.595Z,6.88
2019-02-10T01:36:04.508Z,6.85
2019-02-10T01:40:12.039Z,6.88
2019-02-10T01:44:20.016Z,6.93
2019-02-10T01:48:27.506Z,7.01
2019-02-10T01:52:34.490Z,6.95
2019-02-10T01:56:41.422Z,6.97
2019-02-10T02:00:49.619Z,7.02
2019-02-10T02:04:56.551Z,7.03
2019-02-10T02:09:05.031Z,6.99
2019-02-10T02:13:12.275Z,7.04
2019-02-10T02:17:19.176Z,7.02
2019-02-10T02:21:26.222Z,7.03
2019-02-10T02:25:33.114Z,7.06
2019-02-10T02:29:40.105Z,7.10
2019-02-10T02:33:47.523Z,7.17
2019-02-10T02:37:54.573Z,7.15
2019-02-10T02:42:01.602Z,7.15
2019-02-10T02:46:08.773Z,7.18
2019-02-10T02:50:15.784Z,7.22
2019-02-10T02:54:22.761Z,7.32
2019-02-10T02:58:29.745Z,7.23
2019-02-10T03:02:36.720Z,7.28
2019-02-10T03:06:47.237Z,7.41
2019-02-10T03:10:54.033Z,7.42
2019-02-10T03:15:00.881Z,7.38
2019-02-10T03:19:07.883Z,7.36
2019-02-10T03:23:14.726Z,7.39
2019-02-10T03:27:21.820Z,7.45
2019-02-10T03:31:29.251Z,7.45
2019-02-10T03:35:36.661Z,7.49
2019-02-10T03:39:43.888Z,7.52
2019-02-10T03:43:50.935Z,7.49
2019-02-10T03:47:58.082Z,7.47
2019-02-10T03:52:06.076Z,7.37
2019-02-10T03:56:12.971Z,7.55
2019-02-10T04:00:20.046Z,7.52
2019-02-10T04:04:27.193Z,7.39
2019-02-10T04:08:34.110Z,7.47
2019-02-10T04:12:40.966Z,7.32
2019-02-10T04:16:47.921Z,7.09
2019-02-10T04:20:54.805Z,6.99
2019-02-10T04:25:01.868Z,7.03
2019-02-10T04:29:08.820Z,7.10
2019-02-10T04:33:16.724Z,7.13
2019-02-10T04:37:23.719Z,7.15
2019-02-10T04:41:30.663Z,7.19
2019-02-10T04:45:37.899Z,7.13
2019-02-10T04:49:44.752Z,7.16
2019-02-10T04:53:51.608Z,7.27
2019-02-10T04:57:58.425Z,7.14
2019-02-10T05:02:05.702Z,7.23
2019-02-10T05:06:12.764Z,7.24
2019-02-10T05:10:21.792Z,7.18
2019-02-10T05:14:29.494Z,7.17
2019-02-10T05:18:36.340Z,7.21
2019-02-10T05:22:43.338Z,7.22
2019-02-10T05:26:50.595Z,7.30
2019-02-10T05:30:57.502Z,7.38
2019-02-10T05:35:04.383Z,7.46
2019-02-10T05:39:11.266Z,7.54
2019-02-10T05:43:18.108Z,7.55
2019-02-10T05:47:25.035Z,7.60
2019-02-10T05:51:32.011Z,7.67
2019-02-10T05:55:39.027Z,7.74
2019-02-10T05:59:46.015Z,7.76
2019-02-10T06:03:53.039Z,7.77
2019-02-10T06:07:59.981Z,7.85
2019-02-10T06:12:06.885Z,7.85
2019-02-10T06:16:14.042Z,7.91
2019-02-10T06:20:21.066Z,7.98
2019-02-10T06:24:28.265Z,8.08
2019-02-10T06:28:35.131Z,8.13
2019-02-10T06:32:42.085Z,8.21
2019-02-10T06:36:48.973Z,8.30
2019-02-10T06:40:55.811Z,8.38
2019-02-10T06:45:04.131Z,8.47
2019-02-10T06:49:11.005Z,8.48
2019-02-10T06:53:18.164Z,8.55
2019-02-10T06:57:26.868Z,8.60
2019-02-10T07:01:41.088Z,8.62
2019-02-10T07:05:47.976Z,8.66
2019-02-10T07:09:55.012Z,8.72
2019-02-10T07:14:06.797Z,8.80
2019-02-10T07:19:12.515Z,8.86
2019-02-10T07:24:26.193Z,8.92
2019-02-10T07:29:10.961Z,9.04
2019-02-10T07:33:50.411Z,9.17
2019-02-10T07:38:21.584Z,9.26
2019-02-10T07:43:19.254Z,9.28
2019-02-10T07:48:24.126Z,9.38
2019-02-10T07:53:24.238Z,9.49
2019-02-10T07:58:10.394Z,9.52
2019-02-10T08:03:19.187Z,9.53
2019-02-10T08:08:29.893Z,9.54
2019-02-10T08:13:23.276Z,9.50
2019-02-10T08:17:59.094Z,9.37
2019-02-10T08:22:50.537Z,9.19
2019-02-10T08:27:55.958Z,9.19
2019-02-10T08:32:27.012Z,9.06
2019-02-10T08:36:57.639Z,9.01
2019-02-10T08:42:03.967Z,8.98
2019-02-10T08:46:49.801Z,9.01
2019-02-10T08:51:36.959Z,9.03
2019-02-10T08:55:44.090Z,9.08
2019-02-10T08:59:51.213Z,9.10
2019-02-10T09:04:01.232Z,9.20
2019-02-10T09:08:08.538Z,9.29
2019-02-10T09:12:15.502Z,9.37
2019-02-10T09:16:22.410Z,9.36
2019-02-10T09:20:31.014Z,9.31
2019-02-10T09:24:39.318Z,9.38
2019-02-10T09:28:46.527Z,9.46
2019-02-10T09:32:53.587Z,9.52
2019-02-10T09:37:00.634Z,9.60
2019-02-10T09:41:07.575Z,9.73
2019-02-10T09:45:15.040Z,9.71
2019-02-10T09:49:22.093Z,9.84
2019-02-10T09:53:28.988Z,9.87
2019-02-10T09:57:40.624Z,10.04
2019-02-10T10:01:47.844Z,10.06
2019-02-10T10:05:55.947Z,10.09
2019-02-10T10:10:02.871Z,10.00
2019-02-10T10:14:12.545Z,9.97
2019-02-10T10:18:19.461Z,9.90
2019-02-10T10:22:26.362Z,9.73
2019-02-10T10:26:33.295Z,9.74
2019-02-10T10:30:40.330Z,9.74
2019-02-10T10:34:47.201Z,9.86
2019-02-10T10:38:54.062Z,9.89
2019-02-10T10:43:01.023Z,9.83
2019-02-10T10:47:09.024Z,9.64
2019-02-10T10:51:15.983Z,9.68
2019-02-10T10:55:22.855Z,9.45
2019-02-10T10:59:29.777Z,9.48
2019-02-10T11:03:36.657Z,9.38
2019-02-10T11:07:43.761Z,9.36
2019-02-10T11:11:51.982Z,9.35
2019-02-10T11:15:59.162Z,9.34
2019-02-10T11:20:06.864Z,9.25
2019-02-10T11:24:14.000Z,9.20
2019-02-10T11:28:20.977Z,9.21
2019-02-10T11:32:28.874Z,9.08
2019-02-10T11:36:35.938Z,9.16
2019-02-10T11:40:47.114Z,9.17
2019-02-10T11:44:55.054Z,9.15
2019-02-10T11:49:03.958Z,9.12
2019-02-10T11:53:12.777Z,9.18
2019-02-10T11:57:19.902Z,9.14
2019-02-10T12:01:28.938Z,9.25
2019-02-10T12:05:39.458Z,9.20
2019-02-10T12:09:51.763Z,9.17
2019-02-10T12:13:59.453Z,9.23
2019-02-10T12:18:06.303Z,9.19
2019-02-10T12:22:13.330Z,9.22
2019-02-10T12:26:20.316Z,9.23
2019-02-10T12:30:28.246Z,9.24
2019-02-10T12:34:35.197Z,9.23
2019-02-10T12:38:42.508Z,9.20
2019-02-10T12:42:49.519Z,9.24
2019-02-10T12:46:56.613Z,9.24
2019-02-10T12:51:04.072Z,9.17
2019-02-10T12:55:11.205Z,9.23
2019-02-10T12:59:18.495Z,9.28
2019-02-10T13:03:26.505Z,9.30
2019-02-10T13:07:33.338Z,9.20
2019-02-10T13:11:40.200Z,9.29
2019-02-10T13:15:47.089Z,9.15
2019-02-10T13:19:54.130Z,9.19
2019-02-10T13:24:01.007Z,9.13
2019-02-10T13:28:07.927Z,9.16
2019-02-10T13:32:15.027Z,9.10
2019-02-10T13:36:22.331Z,9.12
2019-02-10T13:40:29.160Z,9.11
2019-02-10T13:44:36.094Z,9.24
2019-02-10T13:48:43.064Z,9.21
2019-02-10T13:52:50.289Z,9.24
2019-02-10T13:56:57.204Z,9.15
2019-02-10T14:01:04.172Z,9.12
2019-02-10T14:05:11.261Z,9.05
2019-02-10T14:09:18.229Z,9.11
2019-02-10T14:13:25.172Z,9.03
2019-02-10T14:17:32.197Z,8.95
2019-02-10T14:21:39.096Z,8.95
2019-02-10T14:25:50.102Z,8.92
2019-02-10T14:29:57.198Z,8.81
2019-02-10T14:34:04.141Z,8.66
2019-02-10T14:38:11.105Z,8.59
2019-02-10T14:42:18.364Z,8.43
2019-02-10T14:46:25.377Z,8.37
2019-02-10T14:50:32.375Z,8.37
2019-02-10T14:54:39.433Z,8.30
2019-02-10T14:58:46.370Z,8.35
2019-02-10T15:02:54.233Z,8.27
2019-02-10T15:07:01.400Z,8.28
2019-02-10T15:11:10.061Z,8.21
2019-02-10T15:15:17.356Z,8.19
2019-02-10T15:19:24.377Z,8.19
2019-02-10T15:23:31.343Z,8.18
2019-02-10T15:27:40.847Z,8.16
2019-02-10T15:31:47.907Z,8.16
2019-02-10T15:35:54.874Z,8.21
2019-02-10T15:40:01.748Z,8.19
2019-02-10T15:44:10.358Z,8.21
2019-02-10T15:48:17.438Z,8.23
2019-02-10T15:52:24.625Z,8.18
2019-02-10T15:56:31.546Z,8.25
2019-02-10T16:00:38.842Z,8.29
2019-02-10T16:04:46.004Z,8.32
2019-02-10T16:08:52.946Z,8.31
2019-02-10T16:13:01.121Z,8.26
2019-02-10T16:17:08.008Z,8.30
2019-02-10T16:21:15.058Z,8.29
2019-02-10T16:25:21.963Z,8.28
2019-02-10T16:29:29.903Z,8.19
2019-02-10T16:33:36.807Z,8.15
2019-02-10T16:37:44.387Z,8.19
2019-02-10T16:41:51.259Z,8.08
2019-02-10T16:45:58.473Z,8.10
2019-02-10T16:50:07.903Z,8.03
2019-02-10T16:54:14.838Z,7.94
2019-02-10T16:58:21.738Z,7.82
2019-02-10T17:02:28.763Z,7.81
2019-02-10T17:06:35.608Z,7.79
2019-02-10T17:10:42.649Z,7.75
2019-02-10T17:14:49.765Z,7.73
2019-02-10T17:18:56.679Z,7.71
2019-02-10T17:23:04.799Z,7.70
2019-02-10T17:27:11.743Z,7.62
2019-02-10T17:31:18.653Z,7.58
2019-02-10T17:35:25.482Z,7.57
2019-02-10T17:39:32.431Z,7.59
2019-02-10T17:43:39.372Z,7.53
2019-02-10T17:47:46.184Z,7.50
2019-02-10T17:51:53.040Z,7.44
2019-02-10T17:55:59.879Z,7.35
2019-02-10T18:00:08.337Z,7.27
2019-02-10T18:04:15.483Z,7.20
2019-02-10T18:08:23.004Z,7.20
2019-02-10T18:12:30.288Z,7.08
2019-02-10T18:17:05.160Z,7.04
2019-02-10T18:21:36.854Z,7.01
2019-02-10T18:25:58.234Z,6.93
2019-02-10T18:30:24.866Z,6.88
2019-02-10T18:34:50.086Z,6.85
2019-02-10T18:39:24.970Z,6.83
2019-02-10T18:43:57.344Z,6.78
2019-02-10T18:48:16.100Z,6.72
2019-02-10T18:52:35.617Z,6.77
2019-02-10T18:57:07.605Z,6.72
2019-02-10T19:01:49.690Z,6.71
2019-02-10T19:06:14.546Z,6.82
2019-02-10T19:10:39.327Z,6.86
2019-02-10T19:15:11.191Z,6.89
2019-02-10T19:19:31.548Z,6.84
2019-02-10T19:24:00.456Z,6.91
2019-02-10T19:28:29.012Z,6.94
2019-02-10T19:32:50.169Z,7.00
2019-02-10T19:37:13.797Z,6.97
2019-02-10T19:41:39.529Z,7.00
2019-02-10T19:46:05.777Z,7.00
2019-02-10T19:50:35.113Z,6.98
2019-02-10T19:55:06.627Z,6.98
2019-02-10T19:59:35.577Z,6.96
2019-02-10T20:04:07.905Z,6.95
2019-02-10T20:08:45.571Z,6.93
2019-02-10T20:13:10.201Z,6.81
2019-02-10T20:17:33.418Z,6.92
2019-02-10T20:21:57.832Z,6.81
2019-02-10T20:26:23.381Z,6.72
2019-02-10T20:30:40.797Z,6.65
2019-02-10T20:35:12.294Z,6.55
2019-02-10T20:39:27.380Z,6.51
2019-02-10T20:43:38.583Z,6.46
2019-02-10T20:48:23.036Z,6.38
2019-02-10T20:52:49.020Z,6.39
2019-02-10T20:57:03.943Z,6.36
2019-02-10T21:01:30.032Z,6.24
2019-02-10T21:05:56.107Z,6.25
2019-02-10T21:10:21.706Z,6.20
2019-02-10T21:14:47.979Z,6.14
2019-02-10T21:19:53.961Z,6.17
2019-02-10T21:24:35.843Z,6.15
2019-02-10T21:34:08.316Z,6.31
2019-02-10T21:38:50.467Z,6.23
2019-02-10T21:43:16.207Z,6.32
2019-02-10T21:47:31.947Z,6.36
2019-02-10T21:51:38.718Z,6.36
2019-02-10T21:55:46.387Z,6.29
2019-02-10T21:59:53.856Z,6.27
2019-02-10T22:04:00.702Z,6.34
2019-02-10T22:08:07.542Z,6.33
2019-02-10T22:12:14.380Z,6.36
2019-02-10T22:16:21.200Z,6.39
2019-02-10T22:20:28.008Z,6.35
2019-02-10T22:24:34.915Z,6.34
2019-02-10T22:28:41.751Z,6.38
2019-02-10T22:32:48.701Z,6.34
2019-02-10T22:36:55.583Z,6.31
2019-02-10T22:41:02.436Z,6.26
2019-02-10T22:45:11.045Z,6.25
2019-02-10T22:49:18.841Z,6.29
2019-02-10T22:53:25.683Z,6.41
2019-02-10T22:57:34.638Z,6.40
2019-02-10T23:01:42.018Z,6.42
2019-02-10T23:05:49.216Z,6.39
2019-02-10T23:09:56.553Z,6.34
2019-02-10T23:14:03.339Z,6.33
2019-02-10T23:18:10.252Z,6.25
2019-02-10T23:22:17.154Z,6.31
2019-02-10T23:26:24.173Z,6.26
2019-02-10T23:30:31.087Z,6.03
2019-02-10T23:34:37.922Z,6.11
2019-02-10T23:38:44.873Z,5.95
2019-02-10T23:42:52.799Z,5.97
2019-02-10T23:46:59.657Z,5.94
2019-02-10T23:51:06.574Z,5.78
2019-02-10T23:55:13.384Z,5.83
2019-02-10T23:59:20.191Z,5.78
